Hauptseite
METAR-TAF:

METAR-TAF

Flughäfen :

Verkehrslandeplatz Mönchengladbach

Mönchengladbach, Deutschland

Breite: 51-13-49N, Länge: 006-30-16E, Höhe: 38 m

Beobachtung

Neuester Wetterbericht von vor 11 Minuten, um 14:50 UTC
Wind 10 kt aus Nordwest
Temperatur 9°C
Luftfeuchtigkeit 61%
Luftdruck 1031 hPa
Sichtweite 10 km oder mehr
Leicht bewölkt in der Höhe von 3100 ft
Geschlossene Wolkendecke in der Höhe von 5000 ft

METAR: EDLN 261450Z 31010KT 9999 FEW031 OVC050 09/02 Q1031

Zeit: 16:01 (15:01 UTC)

Prognose

Neuester Wetterbericht von vor 1 Stunde und 1 Minuten, um 14:00 UTC
Gültige Prognose vom 26 um 15 UTC bis 26 um 24 UTC
Wind 8 kt aus West/Nordwest
Sichtweite 10 km oder mehr
Durchbrochene Bewölkung in der Höhe von 3000 ft
Übergehend zu
vom 26 um 17 UTC bis 26 um 20 UTC
Wind 3 kt aus West/Nordwest

TAF: EDLN 261400Z 2615/2624 30008KT 9999 BKN030 BECMG 2617/2620 29003KT

Wetterbeobachtungen und Prognosen von mehr als 4000 Flughäfen (METAR und TAF Bericht).

Die verfügbaren Stationen werden durch gelbe und rote Markierungen auf der Karte dargestellt.

Führen Sie die Maus auf sie, um den Namen der Station zu sehen.

Darauf klicken, um die Beobachtung von Wetterbeobachtungen und Prognosen zu sehen.

Um die Karte zu ändern : klicken Sie auf den grünen Tasten mit einem schwarzen Kreuz Zum Vergrößern, auf den grünen Button mit einem Gedankenstrich zu verkleinern, oder auf die grünen Pfeile für benachbarte Karten.


METAR-TAF: